Airfield :
LOGIN :

Register | Disclaimer

   EN    FR    IT 

 










Legend :    VFR   Marginal VFR   IFR   Intensive IFR   Very Intensive IFR
Visi :
Ceiling :
>= 8 km
>= 3000ft
5 to 8 km
1000 to 3000 ft
1500m to 5 km
500 to 1000 ft
800 to 1500m
200 to 500 ft
< 800m
< 200 ft
Symbols :   Thunderstorms  Fog  Heavy snow  Heavy precipitations  Wind > 20 kt
SIGMETs :     Misc.  Thunderstorms  Icing  Turbulence  Mountain Waves  Volcanic Ashes






- Airport Elevation : 870 ft
- IATA code : ETZ


LFJL - Metz Nancy Lorraine

CURRENT METAR :
  • 191200Z AUTO 22021KT 9999 OVC018 03/01 Q1015 TEMPO 22015G25KT 4000 RA BKN014

EXPIRED METARs :
  • 191130Z AUTO 21019KT 9999 BKN015 OVC020 02/01 Q1015 TEMPO 22015G25KT 4000 RA BKN014
  • 191100Z AUTO 21017KT 9999 RA BKN016/// OVC021/// ///TCU 02/01 Q1016 TEMPO 22015G25KT 4000 RA BKN014
  • 191030Z AUTO 22015KT 9999 -RA OVC017/// ///TCU 02/00 Q1016 TEMPO 22015G25KT 4000 RA BKN014
  • 191000Z AUTO 21017KT 9999 -RA FEW021/// SCT029/// BKN037/// ///TCU 02/M01 Q1016 TEMPO 22015G25KT 4000 RA BKN014
  • 190930Z AUTO 21020KT 9999 -RA BKN032/// BKN044/// BKN054/// ///TCU 02/M01 Q1017 TEMPO 22015G25KT 4000 RA BKN014

TAF TAF LFJL
Valid from the 19 at 12:00 until the 20 at 12:00 UTC


191100Z 1912/2012 21014KT 9999 SCT035 OVC080
TEMPO 1912/1916 22015G25KT 4000 RA BKN014
BECMG 1917/1920 CAVOK



MET'MAP, your aeronautical weather chart ! - Copyright ORBIFLY December 2007 - Disclaimer

ORBIFLY MET'MAP TEAM :

Programming & Development : Alexandra Zaïnal
Concept & original design : Baudouin d'Aumeries
Assistance for programming : Marc-Olivier Méhu
Technical & hardware support : Manuel Goepfert

Contact : metmap@orbifly.com




SOURCES & CREDITS :

   NOAA